Main page
METAR-TAF:

METAR-TAF

Airports :

Kulob, Tajikistan

Kulob Airport

latitude: 37-59-18N, longitude: 069-48-18E, elevation: 699 m

Current weather observation

The report was made 27 minutes ago, at 11:30 UTC
Wind 4 kt from the South/Southwest
Temperature 15°C
Humidity 36%
Pressure 1023 hPa
Visibility 10 km or more

METAR: UTDK 201130Z 20002MPS 9999 NSC 15/00 Q1023 R01/09//70 RMK QFE709/0946

Time: 16:57 (11:57 UTC)

Forecast

The report was made 2 hours and 57 minutes ago, at 09:00 UTC
Forecast valid from 20 at 10 UTC to 20 at 19 UTC
Wind 4 kt from variable directions
Visibility: 6000 m
Few clouds at a height of 6600 ft
Scattered clouds at a height of 15000 ft
Temporary
from 20 at 10 UTC to 20 at 19 UTC
Wind 12 kt from the South/Southwest
Becoming
from 20 at 14 UTC to 20 at 16 UTC
Wind 10 kt from the North/Northeast
Visibility: 4000 m
mist

TAF: UTDK 200900Z 2010/2019 VRB02MPS 6000 FEW066 SCT150 TEMPO 2010/2019 21006MPS BECMG 2014/2016 03005MPS 4000 BR

Weather observations and forecasts of more than 4000 airports (METAR and TAF reports).

The available stations are represented by yellow and red dots on the map.

Hover mouse over dot to see the name of the station.

Then click to see weather observations and forecasts.

To change the map : click on the green buttons with a black cross to zoom in, on the green button with a dash to zoom out, or on the green arrows for adjacent maps.


METAR-TAF: